Time;durP1;ratioP1;P1;durP2;ratioP2;P2;SDS_P1;SDS_P2;PMS_P1;PMS_P2;Temp;Humidity;BMP_temperature;BMP_pressure;BME280_temperature;BME280_humidity;BME280_pressure;Samples;Min_cycle;Max_cycle;Signal;HPM_P1;HPM_P2
2021/12/23 00:01:01;;;;;;;122.60;39.43;;;-6.70;1.00;;;;;;4390376;28;658748;-73
2021/12/23 00:03:48;;;;;;;118.20;37.17;;;-6.60;1.00;;;;;;4412348;28;659696;-73
2021/12/23 00:06:38;;;;;;;128.40;39.07;;;-6.70;1.00;;;;;;4390172;28;658578;-73
2021/12/23 00:09:42;;;;;;;127.90;37.87;;;-6.60;1.00;;;;;;4392153;28;658650;-74
2021/12/23 00:12:30;;;;;;;129.17;40.10;;;-6.60;1.00;;;;;;4376998;28;659213;-73
2021/12/23 00:15:28;;;;;;;136.67;39.70;;;-6.50;1.00;;;;;;4405796;28;659148;-73
2021/12/23 00:18:18;;;;;;;131.23;40.50;;;-6.50;1.00;;;;;;4371634;28;659117;-71
2021/12/23 00:24:12;;;;;;;125.80;39.20;;;-6.50;1.00;;;;;;4364834;28;659339;-73
2021/12/23 00:27:01;;;;;;;133.90;39.57;;;-6.50;1.00;;;;;;4405783;28;660089;-74
2021/12/23 00:29:48;;;;;;;122.87;39.30;;;-6.50;1.00;;;;;;4412459;28;659024;-72
2021/12/23 00:32:36;;;;;;;133.13;39.20;;;-6.40;1.00;;;;;;4388033;28;659231;-71
2021/12/23 00:35:25;;;;;;;106.27;34.07;;;-6.50;1.00;;;;;;4413419;28;659212;-71
2021/12/23 00:38:19;;;;;;;106.37;33.60;;;-6.40;1.00;;;;;;4386396;28;659658;-71
2021/12/23 00:41:09;;;;;;;113.87;34.37;;;-6.40;1.00;;;;;;4391224;28;658554;-73
2021/12/23 00:43:56;;;;;;;106.93;34.20;;;-6.30;1.00;;;;;;4389168;28;658504;-71
2021/12/23 00:46:44;;;;;;;98.25;31.48;;;-6.30;1.00;;;;;;4410946;28;659380;-71
2021/12/23 00:49:31;;;;;;;97.83;34.40;;;-6.20;1.00;;;;;;4389010;28;659145;-73
2021/12/23 00:52:26;;;;;;;106.03;33.33;;;-6.20;1.00;;;;;;4410772;28;657428;-71
2021/12/23 00:55:14;;;;;;;95.33;30.57;;;-6.20;1.00;;;;;;4386492;28;659610;-71
2021/12/23 00:58:03;;;;;;;97.15;30.80;;;-6.20;1.00;;;;;;4391596;28;659438;-71
2021/12/23 01:00:51;;;;;;;90.70;29.77;;;-6.20;1.00;;;;;;4391392;28;657687;-72
2021/12/23 01:03:38;;;;;;;100.93;33.17;;;-6.20;1.00;;;;;;4410728;28;659134;-71
2021/12/23 01:06:26;;;;;;;92.03;31.80;;;-6.20;1.00;;;;;;4390704;28;658485;-73
2021/12/23 01:09:13;;;;;;;88.87;31.17;;;-6.30;1.00;;;;;;4410550;28;657932;-71
2021/12/23 01:12:01;;;;;;;84.47;30.40;;;-6.30;1.00;;;;;;4389930;28;659318;-71
2021/12/23 01:14:57;;;;;;;88.13;29.90;;;-6.30;1.00;;;;;;4408872;28;658792;-71
2021/12/23 01:17:55;;;;;;;80.10;27.70;;;-6.30;1.00;;;;;;4385385;28;657955;-71
2021/12/23 01:20:51;;;;;;;75.90;26.87;;;-6.40;1.00;;;;;;4389409;28;658014;-71
2021/12/23 01:23:41;;;;;;;97.70;30.37;;;-6.40;1.00;;;;;;4385257;28;657418;-71
2021/12/23 01:26:28;;;;;;;86.50;30.47;;;-6.50;1.00;;;;;;4387578;28;659133;-71
2021/12/23 01:29:16;;;;;;;82.70;29.73;;;-6.50;1.00;;;;;;4390749;28;657967;-71
2021/12/23 01:32:06;;;;;;;92.03;29.83;;;-6.60;1.00;;;;;;4413018;28;658218;-71
2021/12/23 01:34:54;;;;;;;82.70;29.20;;;-6.60;1.00;;;;;;4390456;28;658316;-71
2021/12/23 01:37:41;;;;;;;86.43;29.30;;;-6.70;1.00;;;;;;4388213;28;657513;-71
2021/12/23 01:40:29;;;;;;;91.47;29.20;;;-6.80;1.00;;;;;;4412022;28;658194;-71
2021/12/23 01:43:17;;;;;;;81.80;29.15;;;-7.00;1.00;;;;;;4387849;28;657632;-71
2021/12/23 01:46:05;;;;;;;81.17;27.43;;;-7.00;1.00;;;;;;4409347;28;657620;-71
2021/12/23 01:48:54;;;;;;;73.30;26.73;;;-7.10;1.00;;;;;;4386136;28;659044;-71
2021/12/23 01:51:41;;;;;;;83.53;27.30;;;-7.10;1.00;;;;;;4388378;28;658175;-73
2021/12/23 01:54:29;;;;;;;80.13;26.33;;;-7.20;1.00;;;;;;4410563;28;657584;-73
2021/12/23 01:57:17;;;;;;;70.63;25.00;;;-7.30;1.00;;;;;;4391334;28;657981;-73
2021/12/23 02:00:06;;;;;;;67.17;23.83;;;-7.40;1.00;;;;;;4409855;28;657170;-72
2021/12/23 02:02:54;;;;;;;74.07;24.13;;;-7.40;1.00;;;;;;4387371;28;658838;-72
2021/12/23 02:05:43;;;;;;;66.13;23.07;;;-7.50;1.00;;;;;;4390434;28;657564;-73
2021/12/23 02:08:31;;;;;;;61.57;21.40;;;-7.50;1.00;;;;;;4387197;28;657650;-73
2021/12/23 02:11:18;;;;;;;61.00;21.37;;;-7.60;1.00;;;;;;4407979;28;658625;-72
2021/12/23 02:14:06;;;;;;;64.53;21.23;;;-7.70;1.00;;;;;;4389559;28;658698;-73
2021/12/23 02:16:53;;;;;;;63.10;22.37;;;-7.70;1.00;;;;;;4410271;28;658960;-73
2021/12/23 02:19:40;;;;;;;59.30;20.53;;;-7.80;1.00;;;;;;4388605;28;657878;-73
2021/12/23 02:22:29;;;;;;;55.77;20.03;;;-7.90;1.00;;;;;;4409396;28;658286;-72
2021/12/23 02:25:17;;;;;;;58.07;19.73;;;-7.90;1.00;;;;;;4386905;28;659227;-72
2021/12/23 02:28:08;;;;;;;57.63;19.37;;;-8.00;1.00;;;;;;4409342;28;657740;-70
2021/12/23 02:30:56;;;;;;;63.57;22.87;;;-8.00;1.00;;;;;;4380204;28;657164;-73
2021/12/23 02:33:43;;;;;;;80.13;25.57;;;-8.10;1.00;;;;;;4406846;28;658827;-70
2021/12/23 02:36:31;;;;;;;76.53;25.73;;;-8.10;1.00;;;;;;4390559;28;658296;-72
2021/12/23 02:39:20;;;;;;;75.83;25.83;;;-8.10;1.00;;;;;;4409570;28;658946;-71
2021/12/23 02:42:08;;;;;;;65.83;23.13;;;-8.10;1.00;;;;;;4385457;28;658577;-70
2021/12/23 02:44:56;;;;;;;62.63;21.53;;;-8.20;1.00;;;;;;4388322;28;658136;-71
2021/12/23 02:47:43;;;;;;;66.33;20.97;;;-8.20;1.00;;;;;;4408879;28;657980;-72
2021/12/23 02:50:31;;;;;;;66.10;20.00;;;-8.20;1.00;;;;;;4390944;28;657417;-73
2021/12/23 02:53:18;;;;;;;62.30;20.37;;;-8.30;1.00;;;;;;4409780;28;658722;-73
2021/12/23 02:56:14;;;;;;;54.00;18.70;;;-8.30;1.00;;;;;;4392486;28;659120;-73
2021/12/23 02:59:01;;;;;;;51.30;18.33;;;-8.30;1.00;;;;;;4370961;28;658380;-71
2021/12/23 03:01:48;;;;;;;54.13;18.43;;;-8.30;1.00;;;;;;4411096;28;657500;-70
2021/12/23 03:04:36;;;;;;;52.53;17.00;;;-8.30;1.00;;;;;;4391557;28;657559;-71
2021/12/23 03:07:23;;;;;;;51.77;18.13;;;-8.30;1.00;;;;;;4412363;28;658122;-70
2021/12/23 03:10:11;;;;;;;49.73;17.77;;;-8.40;1.00;;;;;;4393389;28;657522;-71
2021/12/23 03:13:00;;;;;;;52.30;17.10;;;-8.30;1.00;;;;;;4411921;28;658567;-73
2021/12/23 03:15:47;;;;;;;50.70;16.80;;;-8.40;1.00;;;;;;4387931;28;658301;-70
2021/12/23 03:18:35;;;;;;;45.33;15.53;;;-8.40;1.00;;;;;;4409633;28;657717;-70
2021/12/23 03:21:22;;;;;;;44.87;15.90;;;-8.40;1.00;;;;;;4389201;28;658081;-71
2021/12/23 03:24:10;;;;;;;45.23;14.93;;;-8.40;1.00;;;;;;4411380;28;657276;-70
2021/12/23 03:26:57;;;;;;;49.87;15.40;;;-8.40;1.00;;;;;;4388376;28;658332;-71
2021/12/23 03:29:46;;;;;;;46.40;15.23;;;-8.40;1.00;;;;;;4416152;28;658181;-70
2021/12/23 03:32:34;;;;;;;42.17;14.97;;;-8.30;1.00;;;;;;4386489;28;657733;-70
2021/12/23 03:35:21;;;;;;;49.03;15.17;;;-8.30;1.00;;;;;;4392755;28;658470;-71
2021/12/23 03:38:09;;;;;;;50.70;16.30;;;-8.30;1.00;;;;;;4411608;28;657916;-70
2021/12/23 03:40:56;;;;;;;43.58;14.63;;;-8.30;1.00;;;;;;4393226;28;658196;-71
2021/12/23 03:43:44;;;;;;;49.00;16.33;;;-8.30;1.00;;;;;;4409861;28;657805;-71
2021/12/23 03:46:37;;;;;;;47.05;15.18;;;-8.40;1.00;;;;;;4389806;28;657349;-70
2021/12/23 03:49:24;;;;;;;51.77;15.37;;;-8.40;1.00;;;;;;4388624;28;658136;-73
2021/12/23 03:52:12;;;;;;;51.23;17.13;;;-8.40;1.00;;;;;;4392947;28;658168;-70
2021/12/23 03:54:59;;;;;;;68.70;20.97;;;-8.40;1.00;;;;;;4411193;28;657416;-72
2021/12/23 03:57:47;;;;;;;101.43;26.93;;;-8.40;1.00;;;;;;4391152;28;657926;-70
2021/12/23 04:00:34;;;;;;;141.27;35.83;;;-8.40;1.00;;;;;;4414821;28;657972;-71
2021/12/23 04:03:23;;;;;;;80.50;23.83;;;-8.40;1.00;;;;;;4391989;28;659175;-71
2021/12/23 04:06:11;;;;;;;84.37;25.77;;;-8.40;1.00;;;;;;4391377;28;657604;-71
2021/12/23 04:08:58;;;;;;;109.30;31.07;;;-8.40;1.00;;;;;;4412298;28;659621;-73
2021/12/23 04:11:46;;;;;;;95.43;25.57;;;-8.40;1.00;;;;;;4389570;28;659018;-71
2021/12/23 04:14:33;;;;;;;69.50;21.17;;;-8.40;1.00;;;;;;4411779;28;658040;-70
2021/12/23 04:17:21;;;;;;;77.97;21.93;;;-8.50;1.00;;;;;;4392603;28;658471;-71
2021/12/23 04:20:16;;;;;;;57.70;19.10;;;-8.50;1.00;;;;;;4411322;28;658523;-71
2021/12/23 04:23:04;;;;;;;50.70;17.20;;;-8.50;1.00;;;;;;4385011;28;657626;-71
2021/12/23 04:25:52;;;;;;;57.83;16.83;;;-8.50;1.00;;;;;;4391292;28;657569;-71
2021/12/23 04:28:45;;;;;;;60.23;18.07;;;-8.50;1.00;;;;;;4408297;28;657596;-73
2021/12/23 04:31:33;;;;;;;61.97;18.13;;;-8.50;1.00;;;;;;4363693;28;658586;-71
2021/12/23 04:34:20;;;;;;;50.22;16.67;;;-8.60;1.00;;;;;;4391311;28;657700;-71
2021/12/23 04:37:09;;;;;;;56.93;15.93;;;-8.60;1.00;;;;;;4411270;28;658029;-70
2021/12/23 04:39:57;;;;;;;56.90;16.13;;;-8.60;1.00;;;;;;4391875;28;658358;-70
2021/12/23 04:42:44;;;;;;;57.97;18.20;;;-8.60;1.00;;;;;;4409168;28;657983;-70
2021/12/23 04:45:32;;;;;;;59.33;18.47;;;-8.60;1.00;;;;;;4392251;28;658116;-70
2021/12/23 04:48:22;;;;;;;57.83;17.47;;;-8.70;1.00;;;;;;4410333;28;658291;-70
2021/12/23 04:51:10;;;;;;;54.67;17.20;;;-8.70;1.00;;;;;;4387705;28;657421;-73
2021/12/23 04:53:59;;;;;;;59.93;18.90;;;-8.70;1.00;;;;;;4387614;28;659077;-71
2021/12/23 04:56:46;;;;;;;59.13;18.30;;;-8.70;1.00;;;;;;4390048;28;657909;-70
2021/12/23 04:59:34;;;;;;;58.43;18.40;;;-8.70;1.00;;;;;;4407891;28;658031;-71
2021/12/23 05:02:22;;;;;;;63.20;18.90;;;-8.80;1.00;;;;;;4391800;28;658132;-73
2021/12/23 05:05:10;;;;;;;65.47;21.77;;;-8.80;1.00;;;;;;4411026;28;657585;-70
2021/12/23 05:07:58;;;;;;;66.93;21.02;;;-8.80;1.00;;;;;;4390856;28;658099;-70
2021/12/23 05:10:47;;;;;;;62.30;20.23;;;-8.80;1.00;;;;;;4396040;28;657780;-71
2021/12/23 05:13:35;;;;;;;66.77;19.70;;;-8.80;1.00;;;;;;4408153;28;657816;-70
2021/12/23 05:16:22;;;;;;;53.90;18.17;;;-8.80;1.00;;;;;;4388656;28;659531;-70
2021/12/23 05:19:10;;;;;;;56.40;19.30;;;-8.90;1.00;;;;;;4409227;28;657820;-70
2021/12/23 05:21:57;;;;;;;58.83;17.60;;;-8.90;1.00;;;;;;4387520;28;658542;-71
2021/12/23 05:24:45;;;;;;;49.50;16.87;;;-8.90;1.00;;;;;;4410121;28;658282;-70
2021/12/23 05:27:34;;;;;;;47.27;16.60;;;-8.90;1.00;;;;;;4387627;28;659512;-70
2021/12/23 05:30:22;;;;;;;51.10;16.57;;;-8.90;1.00;;;;;;4389826;28;658035;-70
2021/12/23 05:33:09;;;;;;;47.67;15.73;;;-8.90;1.00;;;;;;4415173;28;658057;-70
2021/12/23 05:35:57;;;;;;;51.43;16.20;;;-8.90;1.00;;;;;;4387352;28;659351;-70
2021/12/23 05:38:45;;;;;;;51.27;16.23;;;-8.90;1.00;;;;;;4408621;28;657368;-70
2021/12/23 05:41:32;;;;;;;45.37;15.23;;;-8.90;1.00;;;;;;4388134;28;658854;-70
2021/12/23 05:44:21;;;;;;;56.67;17.17;;;-9.00;1.00;;;;;;4410883;28;657902;-70
2021/12/23 05:47:09;;;;;;;56.83;16.77;;;-9.00;1.00;;;;;;4387010;28;658312;-70
2021/12/23 05:49:56;;;;;;;69.57;22.58;;;-9.10;1.00;;;;;;4391317;28;658140;-71
2021/12/23 05:52:44;;;;;;;71.73;20.70;;;-9.10;1.00;;;;;;4408388;28;658253;-70
2021/12/23 05:55:31;;;;;;;51.47;17.40;;;-9.10;1.00;;;;;;4387711;28;657682;-71
2021/12/23 05:58:19;;;;;;;54.47;17.70;;;-9.10;1.00;;;;;;4410818;28;658194;-70
2021/12/23 06:01:10;;;;;;;56.53;18.23;;;-9.10;1.00;;;;;;4391314;28;657929;-71
2021/12/23 06:04:00;;;;;;;50.67;17.17;;;-9.10;1.00;;;;;;4386490;28;658148;-73
2021/12/23 06:06:54;;;;;;;47.37;15.37;;;-9.10;1.00;;;;;;4387812;28;658388;-70
2021/12/23 06:09:42;;;;;;;61.70;18.20;;;-9.10;1.00;;;;;;4365992;28;658112;-70
2021/12/23 06:12:33;;;;;;;58.73;18.83;;;-9.10;1.00;;;;;;4412629;28;657616;-71
2021/12/23 06:15:24;;;;;;;50.97;16.77;;;-9.10;1.00;;;;;;4368736;28;659177;-70
2021/12/23 06:18:19;;;;;;;53.37;17.67;;;-9.00;1.00;;;;;;4390748;28;657928;-70
2021/12/23 06:21:10;;;;;;;58.70;20.20;;;-9.00;1.00;;;;;;4366750;28;658893;-71
2021/12/23 06:24:03;;;;;;;64.57;19.73;;;-9.00;1.00;;;;;;4390972;28;658253;-71
2021/12/23 06:26:54;;;;;;;57.50;17.57;;;-9.00;1.00;;;;;;4367379;28;657770;-71
2021/12/23 06:29:54;;;;;;;53.63;17.60;;;-9.00;1.00;;;;;;4388132;28;658309;-71
2021/12/23 06:32:42;;;;;;;54.33;16.33;;;-9.00;1.00;;;;;;4363070;28;659009;-70
2021/12/23 06:35:31;;;;;;;53.33;16.38;;;-9.00;1.00;;;;;;4393869;28;658322;-72
2021/12/23 06:38:19;;;;;;;47.37;16.83;;;-8.90;1.00;;;;;;4386955;28;658325;-70
2021/12/23 06:41:28;;;;;;;45.73;14.67;;;-8.90;1.00;;;;;;4390438;28;658251;-70
2021/12/23 06:44:16;;;;;;;50.60;16.53;;;-8.90;1.00;;;;;;4378511;28;657659;-70
2021/12/23 06:47:04;;;;;;;53.40;17.40;;;-8.90;1.00;;;;;;4409329;28;658055;-70
2021/12/23 06:49:51;;;;;;;57.07;18.43;;;-8.90;1.00;;;;;;4390638;28;657360;-73
2021/12/23 06:52:41;;;;;;;56.13;17.87;;;-8.80;1.00;;;;;;4410281;28;657832;-70
2021/12/23 06:55:28;;;;;;;82.97;24.20;;;-8.80;1.00;;;;;;4381249;28;658678;-70
2021/12/23 06:58:16;;;;;;;152.90;42.37;;;-8.80;1.00;;;;;;4389818;28;657490;-70
2021/12/23 07:01:03;;;;;;;105.07;31.73;;;-8.80;1.00;;;;;;4409399;28;659837;-71
2021/12/23 07:04:05;;;;;;;94.30;29.03;;;-8.70;1.00;;;;;;4387805;28;658983;-71
2021/12/23 07:07:07;;;;;;;88.10;26.90;;;-8.70;1.00;;;;;;4385035;28;657769;-70
2021/12/23 07:09:56;;;;;;;101.23;29.00;;;-8.60;1.00;;;;;;4386457;28;658948;-70
2021/12/23 07:12:43;;;;;;;59.13;18.15;;;-8.60;1.00;;;;;;4388858;28;659565;-72
2021/12/23 07:15:32;;;;;;;66.03;22.07;;;-8.50;1.00;;;;;;4389714;28;657399;-70
2021/12/23 07:18:19;;;;;;;70.00;22.07;;;-8.40;1.00;;;;;;4411876;28;657548;-72
2021/12/23 07:21:07;;;;;;;70.37;21.03;;;-8.30;1.00;;;;;;4334214;28;657980;-70
2021/12/23 07:23:54;;;;;;;75.68;23.90;;;-8.20;1.00;;;;;;4371843;28;659472;-72
2021/12/23 07:26:44;;;;;;;69.60;21.83;;;-8.00;1.00;;;;;;4358643;28;658250;-72
2021/12/23 07:29:32;;;;;;;69.97;24.33;;;-8.00;1.00;;;;;;4355620;28;658493;-70
2021/12/23 07:32:19;;;;;;;85.38;26.02;;;-7.80;1.00;;;;;;4372150;28;658686;-72
2021/12/23 07:35:08;;;;;;;105.97;30.70;;;-7.70;1.00;;;;;;4372022;28;658745;-72
2021/12/23 07:37:57;;;;;;;102.93;31.60;;;-7.50;1.00;;;;;;4366335;28;658864;-73
2021/12/23 07:40:44;;;;;;;104.17;32.57;;;-7.40;1.00;;;;;;4387371;28;658790;-72
2021/12/23 07:43:55;;;;;;;90.17;29.53;;;-7.10;1.00;;;;;;4376613;28;659250;-72
2021/12/23 07:46:42;;;;;;;112.70;35.33;;;-7.00;1.00;;;;;;4335701;28;658631;-72
2021/12/23 07:49:30;;;;;;;95.27;31.50;;;-6.70;1.00;;;;;;4381793;28;660168;-72
2021/12/23 07:52:17;;;;;;;108.60;32.20;;;-6.60;1.00;;;;;;4360720;28;657886;-72
2021/12/23 07:55:07;;;;;;;99.30;32.47;;;-6.30;1.00;;;;;;4370313;28;659085;-73
2021/12/23 07:57:54;;;;;;;88.20;29.33;;;-6.10;1.00;;;;;;4376044;28;657984;-72
2021/12/23 08:00:44;;;;;;;91.07;30.43;;;-5.90;1.00;;;;;;4366823;28;658646;-72
2021/12/23 08:03:31;;;;;;;91.30;29.23;;;-5.70;1.00;;;;;;4374442;28;657311;-72
2021/12/23 08:06:19;;;;;;;98.77;30.30;;;-5.50;1.00;;;;;;4380392;28;658228;-72
2021/12/23 08:09:07;;;;;;;122.00;39.90;;;-5.40;1.00;;;;;;4358382;28;657753;-72
2021/12/23 08:11:54;;;;;;;110.45;37.17;;;-5.20;1.00;;;;;;4371424;28;659036;-72
2021/12/23 08:14:42;;;;;;;98.33;33.50;;;-5.00;1.00;;;;;;4361137;28;660322;-72
2021/12/23 08:17:31;;;;;;;97.57;33.67;;;-4.80;1.00;;;;;;4382657;28;657580;-72
2021/12/23 08:20:19;;;;;;;109.57;35.67;;;-4.50;99.90;;;;;;4353696;28;658582;-72
2021/12/23 08:23:06;;;;;;;110.47;37.75;;;-4.40;1.00;;;;;;4350654;28;659975;-72
2021/12/23 08:25:55;;;;;;;109.33;36.60;;;-4.20;1.00;;;;;;4392835;28;659217;-72
2021/12/23 08:28:42;;;;;;;112.47;38.10;;;-4.00;1.00;;;;;;4365139;28;659500;-72
2021/12/23 08:31:30;;;;;;;107.10;36.33;;;-3.80;1.00;;;;;;4392471;28;658785;-70
2021/12/23 08:34:19;;;;;;;96.70;32.03;;;-3.60;1.00;;;;;;4360824;28;659462;-70
2021/12/23 08:37:11;;;;;;;124.33;41.50;;;-3.40;99.90;;;;;;4363754;28;657524;-70
2021/12/23 08:39:58;;;;;;;96.13;33.80;;;-3.30;99.90;;;;;;4355210;28;660114;-70
2021/12/23 08:42:46;;;;;;;125.57;39.83;;;-3.10;99.90;;;;;;4369152;28;659148;-71
2021/12/23 08:45:34;;;;;;;115.03;38.43;;;-2.90;99.90;;;;;;4374682;28;660396;-70
2021/12/23 08:48:23;;;;;;;100.63;35.67;;;-2.80;1.00;;;;;;4356744;28;660512;-70
2021/12/23 08:51:12;;;;;;;108.60;38.80;;;-2.60;1.00;;;;;;4358223;28;658602;-70
2021/12/23 08:54:00;;;;;;;128.40;41.20;;;-2.50;1.00;;;;;;4388204;28;659617;-70
2021/12/23 08:56:48;;;;;;;117.00;37.40;;;-2.30;1.00;;;;;;4351288;28;659065;-70
2021/12/23 08:59:36;;;;;;;97.40;34.33;;;-2.10;99.90;;;;;;4357841;28;659004;-70
2021/12/23 09:02:23;;;;;;;87.73;32.67;;;-2.00;99.90;;;;;;4393227;28;658831;-70
2021/12/23 09:05:12;;;;;;;75.90;27.80;;;-1.90;99.90;;;;;;4356764;28;658534;-72
2021/12/23 09:08:01;;;;;;;76.53;26.77;;;-1.70;99.90;;;;;;4381530;28;659123;-72
2021/12/23 09:10:49;;;;;;;92.63;33.40;;;-1.70;86.40;;;;;;4361615;28;659414;-70
2021/12/23 09:13:37;;;;;;;76.33;28.77;;;-1.50;99.90;;;;;;4362774;28;658752;-70
2021/12/23 09:16:25;;;;;;;68.90;26.70;;;-1.30;59.90;;;;;;4390763;28;658686;-70
2021/12/23 09:19:14;;;;;;;65.87;26.43;;;-1.20;49.10;;;;;;4351330;28;659982;-72
2021/12/23 09:22:01;;;;;;;71.37;27.43;;;-1.00;1.00;;;;;;4354172;28;658822;-70
2021/12/23 09:24:56;;;;;;;66.20;26.40;;;-0.90;1.00;;;;;;4384914;28;658026;-73
2021/12/23 09:27:55;;;;;;;70.30;29.13;;;-0.80;1.00;;;;;;4355728;28;659240;-72
2021/12/23 09:33:48;;;;;;;73.67;27.63;;;-0.80;1.00;;;;;;4344494;28;658271;-70
2021/12/23 09:36:36;;;;;;;72.43;26.23;;;-0.80;1.00;;;;;;4366713;28;657382;-72
2021/12/23 09:39:24;;;;;;;60.37;23.20;;;-0.80;1.00;;;;;;4388634;28;658488;-72
2021/12/23 09:42:12;;;;;;;68.33;25.53;;;-1.00;1.00;;;;;;4369311;28;657443;-73
2021/12/23 09:45:05;;;;;;;64.50;26.10;;;-1.00;1.00;;;;;;4369546;28;658089;-69
2021/12/23 09:47:53;;;;;;;69.63;25.70;;;-1.00;1.00;;;;;;4352850;28;658374;-72
2021/12/23 09:50:41;;;;;;;74.50;27.37;;;-1.10;1.00;;;;;;4357318;28;657632;-72
2021/12/23 09:53:29;;;;;;;69.80;25.20;;;-0.90;1.00;;;;;;4391645;28;658066;-72
2021/12/23 09:56:17;;;;;;;67.40;24.03;;;-0.90;1.00;;;;;;4355444;28;657862;-72
2021/12/23 09:59:07;;;;;;;57.07;22.13;;;-0.80;1.00;;;;;;4372285;28;658354;-70
2021/12/23 10:01:55;;;;;;;59.57;22.90;;;-0.80;1.00;;;;;;4352739;28;657586;-70
2021/12/23 10:04:43;;;;;;;72.47;26.13;;;-0.90;1.00;;;;;;4353551;28;658370;-72
2021/12/23 10:07:31;;;;;;;67.80;24.13;;;-0.90;1.00;;;;;;4366059;28;658045;-70
2021/12/23 10:10:23;;;;;;;63.10;23.60;;;-1.10;1.00;;;;;;4388210;28;658186;-70
2021/12/23 10:32:13;;;;;;;71.18;26.63;;;-1.00;1.00;;;;;;4280425;28;659039;-72
2021/12/23 10:38:25;;;;;;;75.10;26.27;;;-0.90;1.00;;;;;;4257662;29;658575;-70
2021/12/23 10:41:15;;;;;;;70.90;26.83;;;-0.90;1.00;;;;;;4262318;29;659197;-70
2021/12/23 10:44:04;;;;;;;74.50;29.17;;;-0.90;1.00;;;;;;4264449;29;658852;-70
2021/12/23 10:46:53;;;;;;;68.90;27.20;;;-0.80;1.00;;;;;;4260361;29;657747;-72
2021/12/23 10:49:47;;;;;;;70.00;28.53;;;-0.90;1.00;;;;;;4264792;29;657697;-72
2021/12/23 10:52:34;;;;;;;78.60;29.63;;;-0.90;1.00;;;;;;4263228;29;657965;-71
2021/12/23 10:58:27;;;;;;;80.80;28.60;;;-1.00;1.00;;;;;;4259532;29;657689;-70
2021/12/23 11:01:16;;;;;;;78.67;30.07;;;-1.10;1.00;;;;;;4320068;29;657648;-72
2021/12/23 11:04:07;;;;;;;79.23;30.10;;;-1.20;1.00;;;;;;4296832;29;657909;-71
2021/12/23 11:07:16;;;;;;;83.57;30.13;;;-1.10;1.00;;;;;;4300256;29;658271;-71
2021/12/23 11:10:16;;;;;;;84.17;30.80;;;-1.20;1.00;;;;;;4297284;29;658285;-72
2021/12/23 11:29:45;;;;;;;71.17;27.77;;;-1.30;1.00;;;;;;4360083;28;657704;-72
2021/12/23 11:36:05;;;;;;;64.17;25.37;;;-1.20;1.00;;;;;;4356705;28;657706;-72
2021/12/23 11:39:12;;;;;;;68.10;24.40;;;-1.20;1.00;;;;;;4346433;28;659322;-72
2021/12/23 11:42:04;;;;;;;68.77;24.83;;;-1.20;1.00;;;;;;4365246;28;657364;-71
2021/12/23 11:44:53;;;;;;;73.93;25.53;;;-1.10;1.00;;;;;;4343546;28;659270;-72
2021/12/23 11:47:41;;;;;;;69.17;25.93;;;-1.00;1.00;;;;;;4368450;28;657352;-72
2021/12/23 11:50:41;;;;;;;62.30;22.87;;;-1.00;1.00;;;;;;4390613;28;657916;-71
2021/12/23 11:53:30;;;;;;;58.30;23.67;;;-0.90;1.00;;;;;;4358640;28;657751;-72
2021/12/23 11:56:20;;;;;;;72.00;24.57;;;-0.90;1.00;;;;;;4366137;28;657831;-71
2021/12/23 11:59:09;;;;;;;63.77;24.43;;;-1.00;1.00;;;;;;4367861;28;659175;-72
2021/12/23 12:01:57;;;;;;;58.93;22.13;;;-1.00;1.00;;;;;;4360245;28;657739;-72
2021/12/23 12:04:45;;;;;;;57.27;20.30;;;-0.90;1.00;;;;;;4385396;28;658261;-72
2021/12/23 12:07:32;;;;;;;56.90;22.00;;;-1.00;1.00;;;;;;4363029;28;659366;-72
2021/12/23 12:10:23;;;;;;;56.27;20.57;;;-1.10;1.00;;;;;;4388460;28;657695;-72
2021/12/23 12:13:12;;;;;;;54.50;23.80;;;-1.10;1.00;;;;;;4378514;28;658006;-72
2021/12/23 12:16:00;;;;;;;54.57;21.70;;;-1.10;1.00;;;;;;4385777;28;657706;-72
2021/12/23 12:18:47;;;;;;;58.10;21.43;;;-1.20;1.00;;;;;;4359686;28;658364;-72
2021/12/23 12:21:35;;;;;;;53.17;20.40;;;-1.20;1.00;;;;;;4375042;28;658027;-72
2021/12/23 12:24:23;;;;;;;46.53;18.37;;;-1.30;1.00;;;;;;4346949;28;658194;-71
2021/12/23 12:27:12;;;;;;;55.67;20.60;;;-1.30;1.00;;;;;;4366799;28;658245;-71
2021/12/23 12:30:06;;;;;;;50.20;19.70;;;-1.30;1.00;;;;;;4386412;28;657572;-71
2021/12/23 12:32:53;;;;;;;54.00;22.10;;;-1.40;1.00;;;;;;4360071;28;658221;-72
2021/12/23 12:35:41;;;;;;;49.53;20.40;;;-1.40;1.00;;;;;;4360454;28;658229;-72
2021/12/23 12:38:30;;;;;;;50.97;20.03;;;-1.40;1.00;;;;;;4389503;28;657782;-72
2021/12/23 12:41:19;;;;;;;62.10;23.23;;;-1.40;1.00;;;;;;4365947;28;657978;-71
2021/12/23 12:44:13;;;;;;;63.57;21.77;;;-1.40;1.00;;;;;;4370896;28;657199;-71
2021/12/23 12:47:05;;;;;;;56.50;23.23;;;-1.40;1.00;;;;;;4349487;28;657855;-71
2021/12/23 12:50:04;;;;;;;62.37;23.23;;;-1.40;1.00;;;;;;4351971;28;658618;-71
2021/12/23 12:52:55;;;;;;;64.17;23.80;;;-1.40;1.00;;;;;;4330877;28;658450;-71
2021/12/23 12:55:44;;;;;;;54.17;21.27;;;-1.40;1.00;;;;;;4355158;28;657829;-72
2021/12/23 12:58:39;;;;;;;59.40;22.43;;;-1.50;1.00;;;;;;4353611;28;657888;-72
2021/12/23 13:01:34;;;;;;;54.83;21.43;;;-1.50;1.00;;;;;;4373599;28;657786;-71
2021/12/23 13:04:23;;;;;;;52.60;22.13;;;-1.60;1.00;;;;;;4348342;28;657514;-72
2021/12/23 13:07:16;;;;;;;66.13;23.57;;;-1.50;11.90;;;;;;4363456;28;657790;-71
2021/12/23 13:10:09;;;;;;;59.23;22.63;;;-1.50;9.00;;;;;;4365125;28;658505;-71
2021/12/23 13:12:58;;;;;;;59.17;22.30;;;-1.50;3.20;;;;;;4336217;28;657716;-72
2021/12/23 13:15:46;;;;;;;55.87;20.97;;;-1.50;9.60;;;;;;4363967;28;657604;-71
2021/12/23 13:18:35;;;;;;;57.87;22.27;;;-1.50;17.90;;;;;;4375728;28;658022;-71
2021/12/23 13:21:24;;;;;;;58.63;22.33;;;-1.50;5.30;;;;;;4358677;28;659554;-72
2021/12/23 13:24:12;;;;;;;55.47;22.03;;;-1.50;34.80;;;;;;4358156;28;657858;-72
2021/12/23 13:27:00;;;;;;;59.60;21.97;;;-1.50;35.80;;;;;;4390938;28;658242;-72
2021/12/23 13:29:48;;;;;;;58.87;22.83;;;-1.50;20.30;;;;;;4352650;28;660076;-72
2021/12/23 13:32:36;;;;;;;62.07;24.20;;;-1.50;32.00;;;;;;4352215;28;658470;-72
2021/12/23 13:35:27;;;;;;;65.23;24.53;;;-1.50;18.90;;;;;;4364141;28;659273;-72
2021/12/23 13:38:32;;;;;;;54.53;23.23;;;-1.50;25.20;;;;;;4378406;28;658413;-72
2021/12/23 13:41:27;;;;;;;61.72;23.65;;;-1.60;42.20;;;;;;4351867;28;659486;-71
2021/12/23 13:44:19;;;;;;;57.97;23.45;;;-1.60;47.70;;;;;;4353200;28;658506;-72
2021/12/23 13:47:09;;;;;;;62.03;23.07;;;-1.60;61.30;;;;;;4332751;28;659104;-72
2021/12/23 13:49:57;;;;;;;63.83;23.40;;;-1.60;84.80;;;;;;4357523;28;658748;-72
2021/12/23 13:52:49;;;;;;;56.30;22.63;;;-1.70;85.40;;;;;;4374993;28;658371;-72
2021/12/23 13:55:37;;;;;;;63.87;24.47;;;-1.70;99.90;;;;;;4326014;28;658861;-72
2021/12/23 13:58:26;;;;;;;69.50;24.97;;;-1.70;99.90;;;;;;4387543;28;658969;-72
2021/12/23 14:02:06;;;;;;;61.30;23.33;;;-1.70;99.90;;;;;;4361208;28;658909;-72
2021/12/23 14:05:44;;;;;;;57.90;22.27;;;-1.80;99.90;;;;;;4366921;28;659632;-72
2021/12/23 14:08:33;;;;;;;57.23;20.63;;;-1.80;99.90;;;;;;4368747;28;658671;-72
2021/12/23 14:11:20;;;;;;;58.60;23.05;;;-1.90;99.90;;;;;;4377392;28;658538;-73
2021/12/23 14:14:19;;;;;;;60.33;22.73;;;-1.90;99.90;;;;;;4390437;28;658937;-72
2021/12/23 14:17:06;;;;;;;61.20;24.40;;;-1.90;99.90;;;;;;4356850;28;658446;-73
2021/12/23 14:23:12;;;;;;;84.33;30.83;;;-1.90;99.90;;;;;;4394020;28;660024;-74
2021/12/23 14:23:18;;;;;;;78.10;29.20;;;-1.90;99.90;;;;;;4367558;28;659010;-74
2021/12/23 14:26:08;;;;;;;88.40;34.13;;;-1.90;99.90;;;;;;4372243;28;659353;-73
2021/12/23 14:28:56;;;;;;;115.63;39.07;;;-1.90;99.90;;;;;;4370194;28;660496;-72
2021/12/23 14:31:45;;;;;;;110.83;39.27;;;-1.90;99.90;;;;;;4408640;28;661288;-71
2021/12/23 14:34:34;;;;;;;118.20;41.10;;;-1.90;99.90;;;;;;4389314;28;660203;-72
2021/12/23 14:37:22;;;;;;;156.17;42.33;;;-2.00;99.90;;;;;;4389316;28;659258;-72
2021/12/23 14:40:11;;;;;;;119.37;40.77;;;-2.00;99.90;;;;;;4406136;28;659860;-72
2021/12/23 14:43:01;;;;;;;179.93;58.63;;;-2.00;99.90;;;;;;4383059;28;659993;-72
2021/12/23 14:45:57;;;;;;;181.95;57.63;;;-2.10;99.90;;;;;;4370400;28;660768;-72
2021/12/23 14:48:58;;;;;;;196.37;56.10;;;-2.10;99.90;;;;;;4382594;28;659868;-70
2021/12/23 14:51:46;;;;;;;150.43;48.27;;;-2.10;99.90;;;;;;4378322;28;659727;-72
2021/12/23 14:54:34;;;;;;;130.88;46.25;;;-2.20;99.90;;;;;;4412856;28;660491;-72
2021/12/23 14:57:22;;;;;;;126.50;43.77;;;-2.20;99.90;;;;;;4391109;28;661232;-72
2021/12/23 15:00:14;;;;;;;111.60;40.53;;;-2.30;99.90;;;;;;4397101;28;659424;-72
2021/12/23 15:03:02;;;;;;;144.60;47.47;;;-2.30;99.90;;;;;;4391746;28;659807;-72
2021/12/23 15:05:51;;;;;;;151.13;50.70;;;-2.30;99.90;;;;;;4411624;28;659292;-71
2021/12/23 15:08:45;;;;;;;141.53;46.90;;;-2.40;99.90;;;;;;4386721;28;660007;-72